Floating Stones — WDJ5347 — position and weather

sailwx.info

Track history (hours):
 
Tides and Currents Weather Stations Pressure Air Temp Water Temp Dewpoint Dewpoint Depression Visibility Wind Speed Wind Dir Waves Ship Positions

Floating Stones

Owner: FS3, LLC, Spokane, WA. More information available from US FCC via Universal Licensing System and Coast Guard Vessel Documentation Center.

Last reported at 2017-Aug-30 18:52 UTC. Time now 2017-Nov-17 19:38 UTC.
Position N 31°56' W 116°51'.
Warning: this ship's position is months out of date.

Length 20 m; draft 2.2 m.

Type: Pleasure craft. MMSI: 367786750.

Date/timePositionNaut miles runAvg speedWind from/ knotsBaromVisibWave heightAir tempDewpointWater temp
2017-Aug-30 18:52N 31°56' W 116°51'4 8.4
2017-Aug-30 18:25N 31°58' W 116°55'4 8.5
2017-Aug-30 17:54N 32°02' W 116°58'3 8.6
2017-Aug-30 17:30N 32°05' W 116°60'6 8.6
2017-Aug-30 16:47N 32°10' W 117°03'3 8.3
2017-Aug-30 16:22N 32°13' W 117°05'3 8.4
2017-Aug-30 16:00N 32°16' W 117°06'4 8.6
2017-Aug-30 15:30N 32°20' W 117°09'5 8.9
2017-Aug-30 14:59N 32°24' W 117°11'5 9.0
2017-Aug-30 14:29N 32°29' W 117°12'4 9.2
2017-Aug-30 14:00N 32°33' W 117°13'4 8.5
2017-Aug-30 13:31N 32°37' W 117°14'4 8.1
2017-Aug-30 13:01N 32°41' W 117°14'2 2.5
2017-Aug-30 12:22N 32°43' W 117°14'0 0.0
2017-Aug-30 11:58N 32°43' W 117°14'0 0.0
2017-Aug-30 11:28N 32°43' W 117°14'0 0.0
2017-Aug-30 10:58N 32°43' W 117°14'0 0.0
2017-Aug-30 10:28N 32°43' W 117°14'0 0.0
2017-Aug-30 09:52N 32°43' W 117°14'0 0.0
2017-Aug-30 09:28N 32°43' W 117°14'0 0.0
2017-Aug-30 08:58N 32°43' W 117°14'0 0.0
2017-Aug-30 08:25N 32°43' W 117°14'0 0.0
2017-Aug-30 07:58N 32°43' W 117°14'0 0.0
2017-Aug-30 07:25N 32°43' W 117°14'0 0.0
2017-Aug-30 06:58N 32°43' W 117°14'0 0.0
2017-Aug-30 06:28N 32°43' W 117°14'0 0.0
2017-Aug-30 05:52N 32°43' W 117°14'0 0.0
2017-Aug-30 05:28N 32°43' W 117°14'0 0.0
2017-Aug-30 04:58N 32°43' W 117°14'0 0.0
2017-Aug-30 04:25N 32°43' W 117°14'0 0.0
2017-Aug-30 03:58N 32°43' W 117°14'0 0.0
2017-Aug-30 03:28N 32°43' W 117°14'0 0.0
2017-Aug-30 02:58N 32°43' W 117°14'0 0.0
2017-Aug-30 02:28N 32°43' W 117°14'0 0.0
2017-Aug-30 01:58N 32°43' W 117°14'0 0.0
2017-Aug-30 01:28N 32°43' W 117°14'0 0.0
2017-Aug-30 00:58N 32°43' W 117°14'0 0.0
2017-Aug-30 00:25N 32°43' W 117°14'0 0.0
2017-Aug-29 23:58N 32°43' W 117°14'0 0.0
2017-Aug-29 23:25N 32°43' W 117°14'0 0.0
2017-Aug-29 22:55N 32°43' W 117°14'0 0.0
2017-Aug-29 22:28N 32°43' W 117°14'0 0.0
2017-Aug-29 21:58N 32°43' W 117°14'0 0.0
2017-Aug-29 21:25N 32°43' W 117°14'0 0.0
2017-Aug-29 20:58N 32°43' W 117°14'0 0.0
2017-Aug-29 20:28N 32°43' W 117°14'0 0.0
2017-Aug-29 19:55N 32°43' W 117°14'0 0.0
2017-Aug-29 19:25N 32°43' W 117°14'0 0.0
2017-Aug-29 18:58N 32°43' W 117°14'0 0.0
2017-Aug-29 18:28N 32°43' W 117°14'0 0.0
2017-Aug-29 17:58N 32°43' W 117°14'0 0.0
2017-Aug-29 17:28N 32°43' W 117°14'0 0.0
2017-Aug-29 16:52N 32°43' W 117°14'0 0.0
2017-Aug-29 16:25N 32°43' W 117°14'0 0.0
2017-Aug-29 15:55N 32°43' W 117°14'0 0.0
2017-Aug-29 15:28N 32°43' W 117°14'0 0.0
2017-Aug-29 14:58N 32°43' W 117°14'0 0.0
2017-Aug-29 14:25N 32°43' W 117°14'0 0.0
2017-Aug-29 13:58N 32°43' W 117°14'0 0.0
2017-Aug-29 13:28N 32°43' W 117°14'0 0.0
2017-Aug-29 12:58N 32°43' W 117°14'0 0.0
2017-Aug-29 12:28N 32°43' W 117°14'0 0.0
2017-Aug-29 11:58N 32°43' W 117°14'0 0.0
2017-Aug-29 11:28N 32°43' W 117°14'0 0.0
2017-Aug-29 10:58N 32°43' W 117°14'0 0.0
2017-Aug-29 10:28N 32°43' W 117°14'0 0.0
2017-Aug-29 09:58N 32°43' W 117°14'0 0.0
2017-Aug-29 09:28N 32°43' W 117°14'0 0.0
2017-Aug-29 08:58N 32°43' W 117°14'0 0.0
2017-Aug-29 08:25N 32°43' W 117°14'0 0.0
2017-Aug-29 07:58N 32°43' W 117°14'0 0.0
2017-Aug-29 07:25N 32°43' W 117°14'0 0.0
2017-Aug-29 06:58N 32°43' W 117°14'0 0.0
2017-Aug-29 06:28N 32°43' W 117°14'0 0.0
2017-Aug-29 05:55N 32°43' W 117°14'0 0.0
2017-Aug-29 05:25N 32°43' W 117°14'0 0.0
2017-Aug-29 04:58N 32°43' W 117°14'0 0.0
2017-Aug-29 04:31N 32°43' W 117°14'0 0.0
2017-Aug-29 03:58N 32°43' W 117°14'0 0.0
2017-Aug-29 03:28N 32°43' W 117°14'0 0.0
2017-Aug-29 02:58N 32°43' W 117°14'0 0.0
2017-Aug-29 02:22N 32°43' W 117°14'0 0.0
2017-Aug-29 01:58N 32°43' W 117°14'0 0.0
2017-Aug-29 01:28N 32°43' W 117°14'0 0.0
2017-Aug-29 00:58N 32°43' W 117°14'0 0.0
2017-Aug-29 00:28N 32°43' W 117°14'0 0.0
2017-Aug-28 23:55N 32°43' W 117°14'0 0.0
2017-Aug-28 23:25N 32°43' W 117°14'0 0.0
2017-Aug-28 22:58N 32°43' W 117°14'0 0.0
2017-Aug-28 22:28N 32°43' W 117°14'0 0.0
2017-Aug-28 21:58N 32°43' W 117°14'0 0.0
2017-Aug-28 21:25N 32°43' W 117°14'0 0.0
2017-Aug-28 20:58N 32°43' W 117°14'0 0.0
2017-Aug-28 20:28N 32°43' W 117°14'0 0.0
2017-Aug-28 19:58N 32°43' W 117°14'0 0.0
2017-Aug-28 19:28N 32°43' W 117°14'0 0.0
2017-Aug-28 19:00N 32°43' W 117°14'0 0.0
2017-Aug-28 18:28N 32°43' W 117°14'0 0.0
2017-Aug-28 18:01N 32°43' W 117°14'0 0.0
2017-Aug-28 17:25N 32°43' W 117°14'0 0.0
2017-Aug-28 16:58N 32°43' W 117°14'0 0.0
2017-Aug-28 16:28N 32°43' W 117°14'0 0.0
2017-Aug-28 15:58N 32°43' W 117°14'0 0.0
2017-Aug-28 15:30N 32°43' W 117°14'0 0.0
2017-Aug-28 15:01N 32°43' W 117°14'0 0.0
2017-Aug-28 14:31N 32°43' W 117°14'0 0.0
2017-Aug-28 13:58N 32°43' W 117°14'0 0.0
2017-Aug-28 13:25N 32°43' W 117°14'0 0.0
2017-Aug-28 12:58N 32°43' W 117°14'0 0.0
2017-Aug-28 12:28N 32°43' W 117°14'0 0.0
2017-Aug-28 12:00N 32°43' W 117°14'0 0.0
2017-Aug-28 11:31N 32°43' W 117°14'0 0.0
2017-Aug-28 11:01N 32°43' W 117°14'0 0.0
2017-Aug-28 10:31N 32°43' W 117°14'0 0.0
2017-Aug-28 09:58N 32°43' W 117°14'0 0.0
2017-Aug-28 09:31N 32°43' W 117°14'0 0.0
2017-Aug-28 08:58N 32°43' W 117°14'0 0.0
2017-Aug-28 08:28N 32°43' W 117°14'0 0.0
2017-Aug-28 07:57N 32°43' W 117°14'0 0.0
2017-Aug-28 07:31N 32°43' W 117°14'0 0.0
2017-Aug-28 06:57N 32°43' W 117°14'0 0.0
2017-Aug-28 06:28N 32°43' W 117°14'0 0.0
2017-Aug-28 06:00N 32°43' W 117°14'0 0.0
2017-Aug-28 05:31N 32°43' W 117°14'0 0.0
2017-Aug-28 04:58N 32°43' W 117°14'0 0.0
2017-Aug-28 04:28N 32°43' W 117°14'0 0.0
2017-Aug-28 04:01N 32°43' W 117°14'0 0.0
2017-Aug-28 03:30N 32°43' W 117°14'0 0.0
2017-Aug-28 03:00N 32°43' W 117°14'0 0.0
2017-Aug-28 02:30N 32°43' W 117°14'0 0.0
2017-Aug-28 02:01N 32°43' W 117°14'0 0.0
2017-Aug-28 01:30N 32°43' W 117°14'0 0.0
2017-Aug-28 01:00N 32°43' W 117°14'0 0.0
2017-Aug-28 00:27N 32°43' W 117°14'0 0.0
2017-Aug-28 00:01N 32°43' W 117°14'0 0.0
2017-Aug-27 23:30N 32°43' W 117°14'0 0.0
2017-Aug-27 23:00N 32°43' W 117°14'0 0.0
2017-Aug-27 22:30N 32°43' W 117°14'0 0.0
2017-Aug-27 22:00N 32°43' W 117°14'0 0.0
2017-Aug-27 21:27N 32°43' W 117°14'0 0.0
2017-Aug-27 21:00N 32°43' W 117°14'0 0.0
2017-Aug-27 20:30N 32°43' W 117°14'0 0.0
2017-Aug-27 20:00N 32°43' W 117°14'0 0.0
2017-Aug-27 19:28N 32°43' W 117°14'0 0.0
2017-Aug-27 19:00N 32°43' W 117°14'0 0.0
2017-Aug-27 18:28N 32°43' W 117°14'0 0.0
2017-Aug-27 18:00N 32°43' W 117°14'0 0.0
2017-Aug-27 17:27N 32°43' W 117°14'0 0.0
2017-Aug-27 17:01N 32°43' W 117°14'0 0.0
2017-Aug-27 16:28N 32°43' W 117°14'0 0.0
2017-Aug-27 16:00N 32°43' W 117°14'0 0.0
2017-Aug-27 15:30N 32°43' W 117°14'0 0.0
2017-Aug-27 15:01N 32°43' W 117°14'0 0.0
2017-Aug-27 14:30N 32°43' W 117°14'0 0.0
2017-Aug-27 14:00N 32°43' W 117°14'0 0.0
2017-Aug-27 13:30N 32°43' W 117°14'0 0.0
2017-Aug-27 13:01N 32°43' W 117°14'0 0.0
2017-Aug-27 12:27N 32°43' W 117°14'0 0.0
2017-Aug-27 12:00N 32°43' W 117°14'0 0.0
2017-Aug-27 11:30N 32°43' W 117°14'0 0.0
2017-Aug-27 11:00N 32°43' W 117°14'0 0.0
2017-Aug-27 10:28N 32°43' W 117°14'0 0.0
2017-Aug-27 09:54N 32°43' W 117°14'0 0.0
2017-Aug-27 09:31N 32°43' W 117°14'0 0.0
2017-Aug-27 08:57N 32°43' W 117°14'0 0.0
2017-Aug-27 08:30N 32°43' W 117°14'0 0.0
2017-Aug-27 08:00N 32°43' W 117°14'0 0.0
2017-Aug-27 07:30N 32°43' W 117°14'0 0.0
2017-Aug-27 07:00N 32°43' W 117°14'0 0.0
2017-Aug-27 06:30N 32°43' W 117°14'0 0.0
2017-Aug-27 06:00N 32°43' W 117°14'0 0.0
2017-Aug-27 05:30N 32°43' W 117°14'0 0.0
2017-Aug-27 05:00N 32°43' W 117°14'0 0.0
2017-Aug-27 04:30N 32°43' W 117°14'0 0.0
2017-Aug-27 04:00N 32°43' W 117°14'0 0.0
2017-Aug-27 03:30N 32°43' W 117°14'0 0.0
2017-Aug-27 02:54N 32°43' W 117°14'0 0.0
2017-Aug-27 02:30N 32°43' W 117°14'0 0.0
2017-Aug-27 02:00N 32°43' W 117°14'0 0.0
2017-Aug-27 01:30N 32°43' W 117°14'0 0.0
2017-Aug-27 01:00N 32°43' W 117°14'0 0.0
2017-Aug-27 00:30N 32°43' W 117°14'0 0.0
2017-Aug-26 23:57N 32°43' W 117°14'0 0.0
2017-Aug-26 23:30N 32°43' W 117°14'0 0.0
2017-Aug-26 23:00N 32°43' W 117°14'0 0.0
2017-Aug-26 22:30N 32°43' W 117°14'0 0.0
2017-Aug-26 22:00N 32°43' W 117°14'0 0.0
2017-Aug-26 21:24N 32°43' W 117°14'0 0.0
2017-Aug-26 20:57N 32°43' W 117°14'0 0.0
2017-Aug-26 20:30N 32°43' W 117°14'0 0.0
2017-Aug-26 19:54N 32°43' W 117°14'0 0.0
2017-Aug-26 19:30N 32°43' W 117°14'0 0.0
2017-Aug-26 19:00N 32°43' W 117°14'0 0.0
2017-Aug-26 18:24N 32°43' W 117°14'0 0.0
2017-Aug-26 18:00N 32°43' W 117°14'0 0.0
2017-Aug-26 17:30N 32°43' W 117°14'0 0.0
2017-Aug-26 16:57N 32°43' W 117°14'0 0.0
2017-Aug-26 16:30N 32°43' W 117°14'0 0.0
2017-Aug-26 16:00N 32°43' W 117°14'0 0.0
2017-Aug-26 15:30N 32°43' W 117°14'0 0.0
2017-Aug-26 15:00N 32°43' W 117°14'0 0.0
2017-Aug-26 14:00N 32°43' W 117°14'0 0.0
2017-Aug-26 13:30N 32°43' W 117°14'0 0.0
2017-Aug-26 13:00N 32°43' W 117°14'0 0.0
2017-Aug-26 12:30N 32°43' W 117°14'0 0.0
2017-Aug-26 12:00N 32°43' W 117°14'0 0.0
2017-Aug-26 11:27N 32°43' W 117°14'0 0.0
2017-Aug-26 11:00N 32°43' W 117°14'0 0.0
2017-Aug-26 10:30N 32°43' W 117°14'0 0.0
2017-Aug-26 10:00N 32°43' W 117°14'0 0.0
2017-Aug-26 09:30N 32°43' W 117°14'0 0.0
2017-Aug-26 09:00N 32°43' W 117°14'0 0.0
2017-Aug-26 08:30N 32°43' W 117°14'0 0.0
2017-Aug-26 07:57N 32°43' W 117°14'0 0.0
2017-Aug-26 07:30N 32°43' W 117°14'0 0.0
2017-Aug-26 07:00N 32°43' W 117°14'0 0.0
2017-Aug-26 06:30N 32°43' W 117°14'0 0.0
2017-Aug-26 06:00N 32°43' W 117°14'0 0.0
2017-Aug-26 05:24N 32°43' W 117°14'0 0.0
2017-Aug-26 05:00N 32°43' W 117°14'0 0.0
2017-Aug-26 04:27N 32°43' W 117°14'0 0.0
2017-Aug-26 03:57N 32°43' W 117°14'0 0.0
2017-Aug-26 03:30N 32°43' W 117°14'0 0.0
2017-Aug-26 03:00N 32°43' W 117°14'0 0.0
2017-Aug-26 02:30N 32°43' W 117°14'0 0.0
2017-Aug-26 02:00N 32°43' W 117°14'0 0.0
2017-Aug-26 01:30N 32°43' W 117°14'0 0.0
2017-Aug-26 01:00N 32°43' W 117°14'0 0.0
2017-Aug-26 00:30N 32°43' W 117°14'0 0.0
2017-Aug-25 23:57N 32°43' W 117°14'0 0.0
2017-Aug-25 23:30N 32°43' W 117°14'0 0.0
2017-Aug-25 23:00N 32°43' W 117°14'0 0.0
2017-Aug-25 22:30N 32°43' W 117°14'0 0.0
2017-Aug-25 22:00N 32°43' W 117°14'0 0.0
2017-Aug-25 21:30N 32°43' W 117°14'0 0.0
2017-Aug-25 20:57N 32°43' W 117°14'0 0.0
2017-Aug-25 20:30N 32°43' W 117°14'0 0.0
2017-Aug-25 20:00N 32°43' W 117°14'0 0.0
2017-Aug-25 19:30N 32°43' W 117°14'0 0.0
2017-Aug-25 19:00N 32°43' W 117°14'0 0.0
2017-Aug-25 18:30N 32°43' W 117°14'0 0.0
2017-Aug-25 18:00N 32°43' W 117°14'0 0.0
2017-Aug-25 17:30N 32°43' W 117°14'0 0.0
2017-Aug-25 17:00N 32°43' W 117°14'0 0.0
2017-Aug-25 16:30N 32°43' W 117°14'0 0.0
2017-Aug-25 16:00N 32°43' W 117°14'0 0.0
2017-Aug-25 15:30N 32°43' W 117°14'0 0.0
2017-Aug-25 15:00N 32°43' W 117°14'0 0.0
2017-Aug-25 13:57N 32°43' W 117°14'0 0.0
2017-Aug-25 13:30N 32°43' W 117°14'0 0.0
2017-Aug-25 13:00N 32°43' W 117°14'0 0.0
2017-Aug-25 12:30N 32°43' W 117°14'0 0.0
2017-Aug-25 12:00N 32°43' W 117°14'0 0.0
2017-Aug-25 11:30N 32°43' W 117°14'0 0.0
2017-Aug-25 11:00N 32°43' W 117°14'0 0.0
2017-Aug-25 10:30N 32°43' W 117°14'0 0.0
2017-Aug-25 10:00N 32°43' W 117°14'0 0.0
2017-Aug-25 09:30N 32°43' W 117°14'0 0.0
2017-Aug-25 09:00N 32°43' W 117°14'0 0.0
2017-Aug-25 08:30N 32°43' W 117°14'0 0.0
2017-Aug-25 08:00N 32°43' W 117°14'0 0.0
2017-Aug-25 07:30N 32°43' W 117°14'0 0.0
2017-Aug-25 07:00N 32°43' W 117°14'0 0.0
2017-Aug-25 06:30N 32°43' W 117°14'0 0.0
2017-Aug-25 06:00N 32°43' W 117°14'0 0.0
2017-Aug-25 05:30N 32°43' W 117°14'0 0.0
2017-Aug-25 04:57N 32°43' W 117°14'0 0.0
2017-Aug-25 04:30N 32°43' W 117°14'0 0.0
2017-Aug-25 03:57N 32°43' W 117°14'0 0.0
2017-Aug-25 03:30N 32°43' W 117°14'0 0.0
2017-Aug-25 03:00N 32°43' W 117°14'0 0.0
2017-Aug-25 02:30N 32°43' W 117°14'0 0.0
2017-Aug-25 02:00N 32°43' W 117°14'0 0.0
2017-Aug-25 01:30N 32°43' W 117°14'0 0.0
2017-Aug-25 01:00N 32°43' W 117°14'0 0.0
2017-Aug-25 00:27N 32°43' W 117°14'0 0.0
2017-Aug-25 00:00N 32°43' W 117°14'0 0.0
2017-Aug-24 23:30N 32°43' W 117°14'0 0.0
2017-Aug-24 23:00N 32°43' W 117°14'0 0.4
2017-Aug-24 22:30N 32°43' W 117°14'1 1.8
2017-Aug-24 22:00N 32°43' W 117°14'0 0.0
2017-Aug-24 21:21N 32°43' W 117°14'0 0.0
2017-Aug-24 20:57N 32°43' W 117°14'0 0.0
2017-Aug-24 20:27N 32°43' W 117°14'1 1.6
2017-Aug-24 20:00N 32°43' W 117°14'0 0.7
2017-Aug-24 19:29N 32°43' W 117°14'0 0.0
2017-Aug-24 18:59N 32°43' W 117°14'0 0.0
2017-Aug-24 18:29N 32°43' W 117°14'0 0.0
2017-Aug-24 17:56N 32°43' W 117°14'0 0.0
2017-Aug-24 17:29N 32°43' W 117°14'0 0.0
2017-Aug-24 16:53N 32°43' W 117°14'0 0.0
2017-Aug-24 16:26N 32°43' W 117°14'0 0.0
2017-Aug-24 15:59N 32°43' W 117°14'0 0.0
2017-Aug-24 15:29N 32°43' W 117°14'0 0.0
2017-Aug-24 14:59N 32°43' W 117°14'0 0.0
2017-Aug-24 14:29N 32°43' W 117°14'0 0.0
2017-Aug-24 13:59N 32°43' W 117°14'0 0.0
2017-Aug-24 13:29N 32°43' W 117°14'0 0.0
2017-Aug-24 12:59N 32°43' W 117°14'0 0.0
2017-Aug-24 12:29N 32°43' W 117°14'0 0.0
2017-Aug-24 11:56N 32°43' W 117°14'0 0.0
2017-Aug-24 11:26N 32°43' W 117°14'0 0.0
2017-Aug-24 10:53N 32°43' W 117°14'0 0.0
2017-Aug-24 10:29N 32°43' W 117°14'0 0.0
2017-Aug-24 09:56N 32°43' W 117°14'0 0.0
2017-Aug-24 09:29N 32°43' W 117°14'0 0.0
2017-Aug-24 08:59N 32°43' W 117°14'0 0.0
2017-Aug-24 08:29N 32°43' W 117°14'0 0.0
2017-Aug-24 07:59N 32°43' W 117°14'0 0.0
2017-Aug-24 07:29N 32°43' W 117°14'0 0.0
2017-Aug-24 06:59N 32°43' W 117°14'0 0.0
2017-Aug-24 06:29N 32°43' W 117°14'0 0.0
2017-Aug-24 05:56N 32°43' W 117°14'0 0.0
2017-Aug-24 05:29N 32°43' W 117°14'0 0.0
2017-Aug-24 04:59N 32°43' W 117°14'0 0.0
2017-Aug-24 04:29N 32°43' W 117°14'0 0.0
2017-Aug-24 03:59N 32°43' W 117°14'0 0.0
2017-Aug-24 03:29N 32°43' W 117°14'0 0.0
2017-Aug-24 02:59N 32°43' W 117°14'0 0.0
2017-Aug-24 02:29N 32°43' W 117°14'0 0.0
2017-Aug-24 01:56N 32°43' W 117°14'0 0.0
2017-Aug-24 01:29N 32°43' W 117°14'0 0.0
2017-Aug-24 00:59N 32°43' W 117°14'0 0.0
2017-Aug-24 00:29N 32°43' W 117°14'0 0.0
2017-Aug-23 23:59N 32°43' W 117°14'0 0.0
2017-Aug-23 23:29N 32°43' W 117°14'0 0.0
2017-Aug-23 22:59N 32°43' W 117°14'0 0.0
2017-Aug-23 22:29N 32°43' W 117°14'0 0.0
2017-Aug-23 21:56N 32°43' W 117°14'0 0.0
2017-Aug-23 21:26N 32°43' W 117°14'0 0.0
2017-Aug-23 20:59N 32°43' W 117°14'0 0.0
2017-Aug-23 20:29N 32°43' W 117°14'0 0.0
2017-Aug-23 19:59N 32°43' W 117°14'0 0.0
2017-Aug-23 19:29N 32°43' W 117°14'0 0.0
2017-Aug-23 18:59N 32°43' W 117°14'0 0.0
2017-Aug-23 18:29N 32°43' W 117°14'0 0.1
2017-Aug-23 18:01N 32°43' W 117°14'4 7.1
2017-Aug-23 17:31N 32°39' W 117°14'3 6.4
2017-Aug-23 17:00N 32°41' W 117°17'4 8.4
2017-Aug-23 16:31N 32°45' W 117°16'1 2.5
2017-Aug-23 15:58N 32°46' W 117°15'0 0.0
2017-Aug-23 15:28N 32°46' W 117°15'0 0.0
2017-Aug-23 14:58N 32°46' W 117°15'0 0.0
2017-Aug-23 14:28N 32°46' W 117°15'0 0.0
2017-Aug-23 13:28N 32°46' W 117°15'0 0.0
2017-Aug-23 12:55N 32°46' W 117°15'0 0.0
2017-Aug-23 12:28N 32°46' W 117°15'0 0.0
2017-Aug-23 11:55N 32°46' W 117°15'0 0.0
2017-Aug-23 11:28N 32°46' W 117°15'0 0.0
2017-Aug-23 10:58N 32°46' W 117°15'0 0.1
2017-Aug-23 10:28N 32°46' W 117°15'0 0.1
2017-Aug-23 09:58N 32°46' W 117°15'0 0.0
2017-Aug-23 09:28N 32°46' W 117°15'0 0.0
2017-Aug-23 08:58N 32°46' W 117°15'0 0.0
2017-Aug-23 08:28N 32°46' W 117°15'0 0.0
2017-Aug-23 07:58N 32°46' W 117°15'0 0.0
2017-Aug-23 07:28N 32°46' W 117°15'0 0.0
2017-Aug-23 06:58N 32°46' W 117°15'0 0.0
2017-Aug-23 06:28N 32°46' W 117°15'0 0.0
2017-Aug-23 05:55N 32°46' W 117°15'0 0.0
2017-Aug-23 05:28N 32°46' W 117°15'0 0.0
2017-Aug-23 04:58N 32°46' W 117°15'0 0.0
2017-Aug-23 04:28N 32°46' W 117°15'0 0.0
2017-Aug-23 03:58N 32°46' W 117°15'0 0.0
2017-Aug-23 03:28N 32°46' W 117°15'0 0.0
2017-Aug-23 02:58N 32°46' W 117°15'0 0.0
2017-Aug-23 02:28N 32°46' W 117°15'0 0.0
2017-Aug-23 01:58N 32°46' W 117°15'0 0.0
2017-Aug-23 01:28N 32°46' W 117°15'0 0.0
2017-Aug-23 00:58N 32°46' W 117°15'0 0.0
2017-Aug-23 00:28N 32°46' W 117°15'0 0.0
2017-Aug-22 23:58N 32°46' W 117°15'0 0.0
2017-Aug-22 23:30N 32°46' W 117°15'0 0.0
2017-Aug-22 23:00N 32°46' W 117°15'0 0.0
2017-Aug-22 22:30N 32°46' W 117°15'0 0.0
2017-Aug-22 22:00N 32°46' W 117°15'0 0.0
2017-Aug-22 21:30N 32°46' W 117°15'0 0.0
2017-Aug-22 21:00N 32°46' W 117°15'0 0.0
2017-Aug-22 20:30N 32°46' W 117°15'0 0.0
2017-Aug-22 20:00N 32°46' W 117°15'0 0.0
2017-Aug-22 19:30N 32°46' W 117°15'0 0.0
2017-Aug-22 19:01N 32°46' W 117°15'1 1.2
2017-Aug-22 18:30N 32°46' W 117°15'3 6.1
2017-Aug-22 18:00N 32°43' W 117°17'3 6.9
2017-Aug-22 17:31N 32°40' W 117°16'2 4.0
2017-Aug-22 17:00N 32°40' W 117°14'3 5.6
2017-Aug-22 16:29N 32°43' W 117°14'0 0.0
2017-Aug-22 15:59N 32°43' W 117°14'0 0.0
2017-Aug-22 15:29N 32°43' W 117°14'0 0.0
2017-Aug-22 14:53N 32°43' W 117°14'0 0.0
2017-Aug-22 14:29N 32°43' W 117°14'0 0.0
2017-Aug-22 13:59N 32°43' W 117°14'0 0.0
2017-Aug-22 13:26N 32°43' W 117°14'0 0.0
2017-Aug-22 12:56N 32°43' W 117°14'0 0.0
2017-Aug-22 12:29N 32°43' W 117°14'0 0.0
2017-Aug-22 11:56N 32°43' W 117°14'0 0.0
2017-Aug-22 11:29N 32°43' W 117°14'0 0.0
2017-Aug-22 10:59N 32°43' W 117°14'0 0.0
2017-Aug-22 10:29N 32°43' W 117°14'0 0.0
2017-Aug-22 09:59N 32°43' W 117°14'0 0.0
2017-Aug-22 09:26N 32°43' W 117°14'0 0.0
2017-Aug-22 08:59N 32°43' W 117°14'0 0.0
2017-Aug-22 08:29N 32°43' W 117°14'0 0.0
2017-Aug-22 07:59N 32°43' W 117°14'0 0.0
2017-Aug-22 07:29N 32°43' W 117°14'0 0.0
2017-Aug-22 06:59N 32°43' W 117°14'0 0.0
2017-Aug-22 06:29N 32°43' W 117°14'0 0.0
2017-Aug-22 05:59N 32°43' W 117°14'0 0.0
2017-Aug-22 05:29N 32°43' W 117°14'0 0.0
2017-Aug-22 04:59N 32°43' W 117°14'0 0.0
2017-Aug-22 04:29N 32°43' W 117°14'0 0.0
2017-Aug-22 03:56N 32°43' W 117°14'0 0.0
2017-Aug-22 03:29N 32°43' W 117°14'0 0.0
2017-Aug-22 02:59N 32°43' W 117°14'0 0.0
2017-Aug-22 02:26N 32°43' W 117°14'0 0.0
2017-Aug-22 01:59N 32°43' W 117°14'0 0.0
2017-Aug-22 01:29N 32°43' W 117°14'0 0.0
2017-Aug-22 00:59N 32°43' W 117°14'0 0.0
2017-Aug-22 00:28N 32°43' W 117°14'0 0.0
2017-Aug-21 23:59N 32°43' W 117°14'0 0.0
2017-Aug-21 23:29N 32°43' W 117°14'0 0.0
2017-Aug-21 22:59N 32°43' W 117°14'0 0.0
2017-Aug-21 22:26N 32°43' W 117°14'0 0.0
2017-Aug-21 21:59N 32°43' W 117°14'0 0.0
2017-Aug-21 21:29N 32°43' W 117°14'0 0.0
2017-Aug-21 20:59N 32°43' W 117°14'0 0.0
2017-Aug-21 20:26N 32°43' W 117°14'0 0.0
2017-Aug-21 19:56N 32°43' W 117°14'0 0.0
2017-Aug-21 19:29N 32°43' W 117°14'0 0.0
2017-Aug-21 18:59N 32°43' W 117°14'0 0.0
2017-Aug-21 18:29N 32°43' W 117°14'0 0.0
2017-Aug-21 17:58N 32°43' W 117°14'0 0.0
2017-Aug-21 17:23N 32°43' W 117°14'0 0.0
2017-Aug-21 16:59N 32°43' W 117°14'0 0.0
2017-Aug-21 16:29N 32°43' W 117°14'0 0.0
2017-Aug-21 15:55N 32°43' W 117°14'0 0.0
2017-Aug-21 15:29N 32°43' W 117°14'0 0.0
2017-Aug-21 14:59N 32°43' W 117°14'0 0.0
2017-Aug-21 14:26N 32°43' W 117°14'0 0.0
2017-Aug-21 13:59N 32°43' W 117°14'0 0.0
2017-Aug-21 13:29N 32°43' W 117°14'0 0.0
2017-Aug-21 12:59N 32°43' W 117°14'0 0.0
2017-Aug-21 12:29N 32°43' W 117°14'0 0.0
2017-Aug-21 11:59N 32°43' W 117°14'0 0.0
2017-Aug-21 11:28N 32°43' W 117°14'0 0.0
2017-Aug-21 10:59N 32°43' W 117°14'0 0.0
2017-Aug-21 10:28N 32°43' W 117°14'0 0.0
2017-Aug-21 09:59N 32°43' W 117°14'0 0.0
2017-Aug-21 09:29N 32°43' W 117°14'0 0.0
2017-Aug-21 08:58N 32°43' W 117°14'0 0.0
2017-Aug-21 08:28N 32°43' W 117°14'0 0.0
2017-Aug-21 07:59N 32°43' W 117°14'0 0.0
2017-Aug-21 07:28N 32°43' W 117°14'0 0.0
2017-Aug-21 06:58N 32°43' W 117°14'0 0.0
2017-Aug-21 06:28N 32°43' W 117°14'0 0.0
2017-Aug-21 05:59N 32°43' W 117°14'0 0.0
2017-Aug-21 05:29N 32°43' W 117°14'0 0.0
2017-Aug-21 04:59N 32°43' W 117°14'0 0.0
2017-Aug-21 04:28N 32°43' W 117°14'0 0.0
2017-Aug-21 03:59N 32°43' W 117°14'0 0.0
2017-Aug-21 03:29N 32°43' W 117°14'0 0.0
2017-Aug-21 02:58N 32°43' W 117°14'0 0.0
2017-Aug-21 02:28N 32°43' W 117°14'0 0.0
2017-Aug-21 01:58N 32°43' W 117°14'0 0.0
2017-Aug-21 01:28N 32°43' W 117°14'0 0.0
2017-Aug-21 00:59N 32°43' W 117°14'0 0.0
2017-Aug-21 00:28N 32°43' W 117°14'0 0.0
2017-Aug-20 23:58N 32°43' W 117°14'0 0.0
2017-Aug-20 23:29N 32°43' W 117°14'0 0.0
2017-Aug-20 22:58N 32°43' W 117°14'0 0.0
2017-Aug-20 22:28N 32°43' W 117°14'0 0.0
2017-Aug-20 21:55N 32°43' W 117°14'0 0.0
2017-Aug-20 21:28N 32°43' W 117°14'0 0.0
2017-Aug-20 20:58N 32°43' W 117°14'0 0.0
2017-Aug-20 20:23N 32°43' W 117°14'0 0.0
2017-Aug-20 19:58N 32°43' W 117°14'0 0.0
2017-Aug-20 19:28N 32°43' W 117°14'0 0.0
2017-Aug-20 18:59N 32°43' W 117°14'  
Track history (hours):
 
Tides and Currents Weather Stations Pressure Air Temp Water Temp Dewpoint Dewpoint Depression Visibility Wind Speed Wind Dir Waves Ship Positions

Floating Stones

Owner: FS3, LLC, Spokane, WA. More information available from US FCC via Universal Licensing System and Coast Guard Vessel Documentation Center.

Last reported at 2017-Aug-30 18:52 UTC. Time now 2017-Nov-17 19:38 UTC.
Position N 31°56' W 116°51'.
Warning: this ship's position is months out of date.

Length 20 m; draft 2.2 m.

Type: Pleasure craft. MMSI: 367786750.

Date/timePositionNaut miles runAvg speedWind from/ knotsBaromVisibWave heightAir tempDewpointWater temp
2017-Aug-30 18:52N 31°56' W 116°51'4 8.4
2017-Aug-30 18:25N 31°58' W 116°55'4 8.5
2017-Aug-30 17:54N 32°02' W 116°58'3 8.6
2017-Aug-30 17:30N 32°05' W 116°60'6 8.6
2017-Aug-30 16:47N 32°10' W 117°03'3 8.3
2017-Aug-30 16:22N 32°13' W 117°05'3 8.4
2017-Aug-30 16:00N 32°16' W 117°06'4 8.6
2017-Aug-30 15:30N 32°20' W 117°09'5 8.9
2017-Aug-30 14:59N 32°24' W 117°11'5 9.0
2017-Aug-30 14:29N 32°29' W 117°12'4 9.2
2017-Aug-30 14:00N 32°33' W 117°13'4 8.5
2017-Aug-30 13:31N 32°37' W 117°14'4 8.1
2017-Aug-30 13:01N 32°41' W 117°14'2 2.5
2017-Aug-30 12:22N 32°43' W 117°14'0 0.0
2017-Aug-30 11:58N 32°43' W 117°14'0 0.0
2017-Aug-30 11:28N 32°43' W 117°14'0 0.0
2017-Aug-30 10:58N 32°43' W 117°14'0 0.0
2017-Aug-30 10:28N 32°43' W 117°14'0 0.0
2017-Aug-30 09:52N 32°43' W 117°14'0 0.0
2017-Aug-30 09:28N 32°43' W 117°14'0 0.0
2017-Aug-30 08:58N 32°43' W 117°14'0 0.0
2017-Aug-30 08:25N 32°43' W 117°14'0 0.0
2017-Aug-30 07:58N 32°43' W 117°14'0 0.0
2017-Aug-30 07:25N 32°43' W 117°14'0 0.0
2017-Aug-30 06:58N 32°43' W 117°14'0 0.0
2017-Aug-30 06:28N 32°43' W 117°14'0 0.0
2017-Aug-30 05:52N 32°43' W 117°14'0 0.0
2017-Aug-30 05:28N 32°43' W 117°14'0 0.0
2017-Aug-30 04:58N 32°43' W 117°14'0 0.0
2017-Aug-30 04:25N 32°43' W 117°14'0 0.0
2017-Aug-30 03:58N 32°43' W 117°14'0 0.0
2017-Aug-30 03:28N 32°43' W 117°14'0 0.0
2017-Aug-30 02:58N 32°43' W 117°14'0 0.0
2017-Aug-30 02:28N 32°43' W 117°14'0 0.0
2017-Aug-30 01:58N 32°43' W 117°14'0 0.0
2017-Aug-30 01:28N 32°43' W 117°14'0 0.0
2017-Aug-30 00:58N 32°43' W 117°14'0 0.0
2017-Aug-30 00:25N 32°43' W 117°14'0 0.0
2017-Aug-29 23:58N 32°43' W 117°14'0 0.0
2017-Aug-29 23:25N 32°43' W 117°14'0 0.0
2017-Aug-29 22:55N 32°43' W 117°14'0 0.0
2017-Aug-29 22:28N 32°43' W 117°14'0 0.0
2017-Aug-29 21:58N 32°43' W 117°14'0 0.0
2017-Aug-29 21:25N 32°43' W 117°14'0 0.0
2017-Aug-29 20:58N 32°43' W 117°14'0 0.0
2017-Aug-29 20:28N 32°43' W 117°14'0 0.0
2017-Aug-29 19:55N 32°43' W 117°14'0 0.0
2017-Aug-29 19:25N 32°43' W 117°14'0 0.0
2017-Aug-29 18:58N 32°43' W 117°14'0 0.0
2017-Aug-29 18:28N 32°43' W 117°14'0 0.0
2017-Aug-29 17:58N 32°43' W 117°14'0 0.0
2017-Aug-29 17:28N 32°43' W 117°14'0 0.0
2017-Aug-29 16:52N 32°43' W 117°14'0 0.0
2017-Aug-29 16:25N 32°43' W 117°14'0 0.0
2017-Aug-29 15:55N 32°43' W 117°14'0 0.0
2017-Aug-29 15:28N 32°43' W 117°14'0 0.0
2017-Aug-29 14:58N 32°43' W 117°14'0 0.0
2017-Aug-29 14:25N 32°43' W 117°14'0 0.0
2017-Aug-29 13:58N 32°43' W 117°14'0 0.0
2017-Aug-29 13:28N 32°43' W 117°14'0 0.0
2017-Aug-29 12:58N 32°43' W 117°14'0 0.0
2017-Aug-29 12:28N 32°43' W 117°14'0 0.0
2017-Aug-29 11:58N 32°43' W 117°14'0 0.0
2017-Aug-29 11:28N 32°43' W 117°14'0 0.0
2017-Aug-29 10:58N 32°43' W 117°14'0 0.0
2017-Aug-29 10:28N 32°43' W 117°14'0 0.0
2017-Aug-29 09:58N 32°43' W 117°14'0 0.0
2017-Aug-29 09:28N 32°43' W 117°14'0 0.0
2017-Aug-29 08:58N 32°43' W 117°14'0 0.0
2017-Aug-29 08:25N 32°43' W 117°14'0 0.0
2017-Aug-29 07:58N 32°43' W 117°14'0 0.0
2017-Aug-29 07:25N 32°43' W 117°14'0 0.0
2017-Aug-29 06:58N 32°43' W 117°14'0 0.0
2017-Aug-29 06:28N 32°43' W 117°14'0 0.0
2017-Aug-29 05:55N 32°43' W 117°14'0 0.0
2017-Aug-29 05:25N 32°43' W 117°14'0 0.0
2017-Aug-29 04:58N 32°43' W 117°14'0 0.0
2017-Aug-29 04:31N 32°43' W 117°14'0 0.0
2017-Aug-29 03:58N 32°43' W 117°14'0 0.0
2017-Aug-29 03:28N 32°43' W 117°14'0 0.0
2017-Aug-29 02:58N 32°43' W 117°14'0 0.0
2017-Aug-29 02:22N 32°43' W 117°14'0 0.0
2017-Aug-29 01:58N 32°43' W 117°14'0 0.0
2017-Aug-29 01:28N 32°43' W 117°14'0 0.0
2017-Aug-29 00:58N 32°43' W 117°14'0 0.0
2017-Aug-29 00:28N 32°43' W 117°14'0 0.0
2017-Aug-28 23:55N 32°43' W 117°14'0 0.0
2017-Aug-28 23:25N 32°43' W 117°14'0 0.0
2017-Aug-28 22:58N 32°43' W 117°14'0 0.0
2017-Aug-28 22:28N 32°43' W 117°14'0 0.0
2017-Aug-28 21:58N 32°43' W 117°14'0 0.0
2017-Aug-28 21:25N 32°43' W 117°14'0 0.0
2017-Aug-28 20:58N 32°43' W 117°14'0 0.0
2017-Aug-28 20:28N 32°43' W 117°14'0 0.0
2017-Aug-28 19:58N 32°43' W 117°14'0 0.0
2017-Aug-28 19:28N 32°43' W 117°14'0 0.0
2017-Aug-28 19:00N 32°43' W 117°14'0 0.0
2017-Aug-28 18:28N 32°43' W 117°14'0 0.0
2017-Aug-28 18:01N 32°43' W 117°14'0 0.0
2017-Aug-28 17:25N 32°43' W 117°14'0 0.0
2017-Aug-28 16:58N 32°43' W 117°14'0 0.0
2017-Aug-28 16:28N 32°43' W 117°14'0 0.0
2017-Aug-28 15:58N 32°43' W 117°14'0 0.0
2017-Aug-28 15:30N 32°43' W 117°14'0 0.0
2017-Aug-28 15:01N 32°43' W 117°14'0 0.0
2017-Aug-28 14:31N 32°43' W 117°14'0 0.0
2017-Aug-28 13:58N 32°43' W 117°14'0 0.0
2017-Aug-28 13:25N 32°43' W 117°14'0 0.0
2017-Aug-28 12:58N 32°43' W 117°14'0 0.0
2017-Aug-28 12:28N 32°43' W 117°14'0 0.0
2017-Aug-28 12:00N 32°43' W 117°14'0 0.0
2017-Aug-28 11:31N 32°43' W 117°14'0 0.0
2017-Aug-28 11:01N 32°43' W 117°14'0 0.0
2017-Aug-28 10:31N 32°43' W 117°14'0 0.0
2017-Aug-28 09:58N 32°43' W 117°14'0 0.0
2017-Aug-28 09:31N 32°43' W 117°14'0 0.0
2017-Aug-28 08:58N 32°43' W 117°14'0 0.0
2017-Aug-28 08:28N 32°43' W 117°14'0 0.0
2017-Aug-28 07:57N 32°43' W 117°14'0 0.0
2017-Aug-28 07:31N 32°43' W 117°14'0 0.0
2017-Aug-28 06:57N 32°43' W 117°14'0 0.0
2017-Aug-28 06:28N 32°43' W 117°14'0 0.0
2017-Aug-28 06:00N 32°43' W 117°14'0 0.0
2017-Aug-28 05:31N 32°43' W 117°14'0 0.0
2017-Aug-28 04:58N 32°43' W 117°14'0 0.0
2017-Aug-28 04:28N 32°43' W 117°14'0 0.0
2017-Aug-28 04:01N 32°43' W 117°14'0 0.0
2017-Aug-28 03:30N 32°43' W 117°14'0 0.0
2017-Aug-28 03:00N 32°43' W 117°14'0 0.0
2017-Aug-28 02:30N 32°43' W 117°14'0 0.0
2017-Aug-28 02:01N 32°43' W 117°14'0 0.0
2017-Aug-28 01:30N 32°43' W 117°14'0 0.0
2017-Aug-28 01:00N 32°43' W 117°14'0 0.0
2017-Aug-28 00:27N 32°43' W 117°14'0 0.0
2017-Aug-28 00:01N 32°43' W 117°14'0 0.0
2017-Aug-27 23:30N 32°43' W 117°14'0 0.0
2017-Aug-27 23:00N 32°43' W 117°14'0 0.0
2017-Aug-27 22:30N 32°43' W 117°14'0 0.0
2017-Aug-27 22:00N 32°43' W 117°14'0 0.0
2017-Aug-27 21:27N 32°43' W 117°14'0 0.0
2017-Aug-27 21:00N 32°43' W 117°14'0 0.0
2017-Aug-27 20:30N 32°43' W 117°14'0 0.0
2017-Aug-27 20:00N 32°43' W 117°14'0 0.0
2017-Aug-27 19:28N 32°43' W 117°14'0 0.0
2017-Aug-27 19:00N 32°43' W 117°14'0 0.0
2017-Aug-27 18:28N 32°43' W 117°14'0 0.0
2017-Aug-27 18:00N 32°43' W 117°14'0 0.0
2017-Aug-27 17:27N 32°43' W 117°14'0 0.0
2017-Aug-27 17:01N 32°43' W 117°14'0 0.0
2017-Aug-27 16:28N 32°43' W 117°14'0 0.0
2017-Aug-27 16:00N 32°43' W 117°14'0 0.0
2017-Aug-27 15:30N 32°43' W 117°14'0 0.0
2017-Aug-27 15:01N 32°43' W 117°14'0 0.0
2017-Aug-27 14:30N 32°43' W 117°14'0 0.0
2017-Aug-27 14:00N 32°43' W 117°14'0 0.0
2017-Aug-27 13:30N 32°43' W 117°14'0 0.0
2017-Aug-27 13:01N 32°43' W 117°14'0 0.0
2017-Aug-27 12:27N 32°43' W 117°14'0 0.0
2017-Aug-27 12:00N 32°43' W 117°14'0 0.0
2017-Aug-27 11:30N 32°43' W 117°14'0 0.0
2017-Aug-27 11:00N 32°43' W 117°14'0 0.0
2017-Aug-27 10:28N 32°43' W 117°14'0 0.0
2017-Aug-27 09:54N 32°43' W 117°14'0 0.0
2017-Aug-27 09:31N 32°43' W 117°14'0 0.0
2017-Aug-27 08:57N 32°43' W 117°14'0 0.0
2017-Aug-27 08:30N 32°43' W 117°14'0 0.0
2017-Aug-27 08:00N 32°43' W 117°14'0 0.0
2017-Aug-27 07:30N 32°43' W 117°14'0 0.0
2017-Aug-27 07:00N 32°43' W 117°14'0 0.0
2017-Aug-27 06:30N 32°43' W 117°14'0 0.0
2017-Aug-27 06:00N 32°43' W 117°14'0 0.0
2017-Aug-27 05:30N 32°43' W 117°14'0 0.0
2017-Aug-27 05:00N 32°43' W 117°14'0 0.0
2017-Aug-27 04:30N 32°43' W 117°14'0 0.0
2017-Aug-27 04:00N 32°43' W 117°14'0 0.0
2017-Aug-27 03:30N 32°43' W 117°14'0 0.0
2017-Aug-27 02:54N 32°43' W 117°14'0 0.0
2017-Aug-27 02:30N 32°43' W 117°14'0 0.0
2017-Aug-27 02:00N 32°43' W 117°14'0 0.0
2017-Aug-27 01:30N 32°43' W 117°14'0 0.0
2017-Aug-27 01:00N 32°43' W 117°14'0 0.0
2017-Aug-27 00:30N 32°43' W 117°14'0 0.0
2017-Aug-26 23:57N 32°43' W 117°14'0 0.0
2017-Aug-26 23:30N 32°43' W 117°14'0 0.0
2017-Aug-26 23:00N 32°43' W 117°14'0 0.0
2017-Aug-26 22:30N 32°43' W 117°14'0 0.0
2017-Aug-26 22:00N 32°43' W 117°14'0 0.0
2017-Aug-26 21:24N 32°43' W 117°14'0 0.0
2017-Aug-26 20:57N 32°43' W 117°14'0 0.0
2017-Aug-26 20:30N 32°43' W 117°14'0 0.0
2017-Aug-26 19:54N 32°43' W 117°14'0 0.0
2017-Aug-26 19:30N 32°43' W 117°14'0 0.0
2017-Aug-26 19:00N 32°43' W 117°14'0 0.0
2017-Aug-26 18:24N 32°43' W 117°14'0 0.0
2017-Aug-26 18:00N 32°43' W 117°14'0 0.0
2017-Aug-26 17:30N 32°43' W 117°14'0 0.0
2017-Aug-26 16:57N 32°43' W 117°14'0 0.0
2017-Aug-26 16:30N 32°43' W 117°14'0 0.0
2017-Aug-26 16:00N 32°43' W 117°14'0 0.0
2017-Aug-26 15:30N 32°43' W 117°14'0 0.0
2017-Aug-26 15:00N 32°43' W 117°14'0 0.0
2017-Aug-26 14:00N 32°43' W 117°14'0 0.0
2017-Aug-26 13:30N 32°43' W 117°14'0 0.0
2017-Aug-26 13:00N 32°43' W 117°14'0 0.0
2017-Aug-26 12:30N 32°43' W 117°14'0 0.0
2017-Aug-26 12:00N 32°43' W 117°14'0 0.0
2017-Aug-26 11:27N 32°43' W 117°14'0 0.0
2017-Aug-26 11:00N 32°43' W 117°14'0 0.0
2017-Aug-26 10:30N 32°43' W 117°14'0 0.0
2017-Aug-26 10:00N 32°43' W 117°14'0 0.0
2017-Aug-26 09:30N 32°43' W 117°14'0 0.0
2017-Aug-26 09:00N 32°43' W 117°14'0 0.0
2017-Aug-26 08:30N 32°43' W 117°14'0 0.0
2017-Aug-26 07:57N 32°43' W 117°14'0 0.0
2017-Aug-26 07:30N 32°43' W 117°14'0 0.0
2017-Aug-26 07:00N 32°43' W 117°14'0 0.0
2017-Aug-26 06:30N 32°43' W 117°14'0 0.0
2017-Aug-26 06:00N 32°43' W 117°14'0 0.0
2017-Aug-26 05:24N 32°43' W 117°14'0 0.0
2017-Aug-26 05:00N 32°43' W 117°14'0 0.0
2017-Aug-26 04:27N 32°43' W 117°14'0 0.0
2017-Aug-26 03:57N 32°43' W 117°14'0 0.0
2017-Aug-26 03:30N 32°43' W 117°14'0 0.0
2017-Aug-26 03:00N 32°43' W 117°14'0 0.0
2017-Aug-26 02:30N 32°43' W 117°14'0 0.0
2017-Aug-26 02:00N 32°43' W 117°14'0 0.0
2017-Aug-26 01:30N 32°43' W 117°14'0 0.0
2017-Aug-26 01:00N 32°43' W 117°14'0 0.0
2017-Aug-26 00:30N 32°43' W 117°14'0 0.0
2017-Aug-25 23:57N 32°43' W 117°14'0 0.0
2017-Aug-25 23:30N 32°43' W 117°14'0 0.0
2017-Aug-25 23:00N 32°43' W 117°14'0 0.0
2017-Aug-25 22:30N 32°43' W 117°14'0 0.0
2017-Aug-25 22:00N 32°43' W 117°14'0 0.0
2017-Aug-25 21:30N 32°43' W 117°14'0 0.0
2017-Aug-25 20:57N 32°43' W 117°14'0 0.0
2017-Aug-25 20:30N 32°43' W 117°14'0 0.0
2017-Aug-25 20:00N 32°43' W 117°14'0 0.0
2017-Aug-25 19:30N 32°43' W 117°14'0 0.0
2017-Aug-25 19:00N 32°43' W 117°14'0 0.0
2017-Aug-25 18:30N 32°43' W 117°14'0 0.0
2017-Aug-25 18:00N 32°43' W 117°14'0 0.0
2017-Aug-25 17:30N 32°43' W 117°14'0 0.0
2017-Aug-25 17:00N 32°43' W 117°14'0 0.0
2017-Aug-25 16:30N 32°43' W 117°14'0 0.0
2017-Aug-25 16:00N 32°43' W 117°14'0 0.0
2017-Aug-25 15:30N 32°43' W 117°14'0 0.0
2017-Aug-25 15:00N 32°43' W 117°14'0 0.0
2017-Aug-25 13:57N 32°43' W 117°14'0 0.0
2017-Aug-25 13:30N 32°43' W 117°14'0 0.0
2017-Aug-25 13:00N 32°43' W 117°14'0 0.0
2017-Aug-25 12:30N 32°43' W 117°14'0 0.0
2017-Aug-25 12:00N 32°43' W 117°14'0 0.0
2017-Aug-25 11:30N 32°43' W 117°14'0 0.0
2017-Aug-25 11:00N 32°43' W 117°14'0 0.0
2017-Aug-25 10:30N 32°43' W 117°14'0 0.0
2017-Aug-25 10:00N 32°43' W 117°14'0 0.0
2017-Aug-25 09:30N 32°43' W 117°14'0 0.0
2017-Aug-25 09:00N 32°43' W 117°14'0 0.0
2017-Aug-25 08:30N 32°43' W 117°14'0 0.0
2017-Aug-25 08:00N 32°43' W 117°14'0 0.0
2017-Aug-25 07:30N 32°43' W 117°14'0 0.0
2017-Aug-25 07:00N 32°43' W 117°14'0 0.0
2017-Aug-25 06:30N 32°43' W 117°14'0 0.0
2017-Aug-25 06:00N 32°43' W 117°14'0 0.0
2017-Aug-25 05:30N 32°43' W 117°14'0 0.0
2017-Aug-25 04:57N 32°43' W 117°14'0 0.0
2017-Aug-25 04:30N 32°43' W 117°14'0 0.0
2017-Aug-25 03:57N 32°43' W 117°14'0 0.0
2017-Aug-25 03:30N 32°43' W 117°14'0 0.0
2017-Aug-25 03:00N 32°43' W 117°14'0 0.0
2017-Aug-25 02:30N 32°43' W 117°14'0 0.0
2017-Aug-25 02:00N 32°43' W 117°14'0 0.0
2017-Aug-25 01:30N 32°43' W 117°14'0 0.0
2017-Aug-25 01:00N 32°43' W 117°14'0 0.0
2017-Aug-25 00:27N 32°43' W 117°14'0 0.0
2017-Aug-25 00:00N 32°43' W 117°14'0 0.0
2017-Aug-24 23:30N 32°43' W 117°14'0 0.0
2017-Aug-24 23:00N 32°43' W 117°14'0 0.4
2017-Aug-24 22:30N 32°43' W 117°14'1 1.8
2017-Aug-24 22:00N 32°43' W 117°14'0 0.0
2017-Aug-24 21:21N 32°43' W 117°14'0 0.0
2017-Aug-24 20:57N 32°43' W 117°14'0 0.0
2017-Aug-24 20:27N 32°43' W 117°14'1 1.6
2017-Aug-24 20:00N 32°43' W 117°14'0 0.7
2017-Aug-24 19:29N 32°43' W 117°14'0 0.0
2017-Aug-24 18:59N 32°43' W 117°14'0 0.0
2017-Aug-24 18:29N 32°43' W 117°14'0 0.0
2017-Aug-24 17:56N 32°43' W 117°14'0 0.0
2017-Aug-24 17:29N 32°43' W 117°14'0 0.0
2017-Aug-24 16:53N 32°43' W 117°14'0 0.0
2017-Aug-24 16:26N 32°43' W 117°14'0 0.0
2017-Aug-24 15:59N 32°43' W 117°14'0 0.0
2017-Aug-24 15:29N 32°43' W 117°14'0 0.0
2017-Aug-24 14:59N 32°43' W 117°14'0 0.0
2017-Aug-24 14:29N 32°43' W 117°14'0 0.0
2017-Aug-24 13:59N 32°43' W 117°14'0 0.0
2017-Aug-24 13:29N 32°43' W 117°14'0 0.0
2017-Aug-24 12:59N 32°43' W 117°14'0 0.0
2017-Aug-24 12:29N 32°43' W 117°14'0 0.0
2017-Aug-24 11:56N 32°43' W 117°14'0 0.0
2017-Aug-24 11:26N 32°43' W 117°14'0 0.0
2017-Aug-24 10:53N 32°43' W 117°14'0 0.0
2017-Aug-24 10:29N 32°43' W 117°14'0 0.0
2017-Aug-24 09:56N 32°43' W 117°14'0 0.0
2017-Aug-24 09:29N 32°43' W 117°14'0 0.0
2017-Aug-24 08:59N 32°43' W 117°14'0 0.0
2017-Aug-24 08:29N 32°43' W 117°14'0 0.0
2017-Aug-24 07:59N 32°43' W 117°14'0 0.0
2017-Aug-24 07:29N 32°43' W 117°14'0 0.0
2017-Aug-24 06:59N 32°43' W 117°14'0 0.0
2017-Aug-24 06:29N 32°43' W 117°14'0 0.0
2017-Aug-24 05:56N 32°43' W 117°14'0 0.0
2017-Aug-24 05:29N 32°43' W 117°14'0 0.0
2017-Aug-24 04:59N 32°43' W 117°14'0 0.0
2017-Aug-24 04:29N 32°43' W 117°14'0 0.0
2017-Aug-24 03:59N 32°43' W 117°14'0 0.0
2017-Aug-24 03:29N 32°43' W 117°14'0 0.0
2017-Aug-24 02:59N 32°43' W 117°14'0 0.0
2017-Aug-24 02:29N 32°43' W 117°14'0 0.0
2017-Aug-24 01:56N 32°43' W 117°14'0 0.0
2017-Aug-24 01:29N 32°43' W 117°14'0 0.0
2017-Aug-24 00:59N 32°43' W 117°14'0 0.0
2017-Aug-24 00:29N 32°43' W 117°14'0 0.0
2017-Aug-23 23:59N 32°43' W 117°14'0 0.0
2017-Aug-23 23:29N 32°43' W 117°14'0 0.0
2017-Aug-23 22:59N 32°43' W 117°14'0 0.0
2017-Aug-23 22:29N 32°43' W 117°14'0 0.0
2017-Aug-23 21:56N 32°43' W 117°14'0 0.0
2017-Aug-23 21:26N 32°43' W 117°14'0 0.0
2017-Aug-23 20:59N 32°43' W 117°14'0 0.0
2017-Aug-23 20:29N 32°43' W 117°14'0 0.0
2017-Aug-23 19:59N 32°43' W 117°14'0 0.0
2017-Aug-23 19:29N 32°43' W 117°14'0 0.0
2017-Aug-23 18:59N 32°43' W 117°14'0 0.0
2017-Aug-23 18:29N 32°43' W 117°14'0 0.1
2017-Aug-23 18:01N 32°43' W 117°14'4 7.1
2017-Aug-23 17:31N 32°39' W 117°14'3 6.4
2017-Aug-23 17:00N 32°41' W 117°17'4 8.4
2017-Aug-23 16:31N 32°45' W 117°16'1 2.5
2017-Aug-23 15:58N 32°46' W 117°15'0 0.0
2017-Aug-23 15:28N 32°46' W 117°15'0 0.0
2017-Aug-23 14:58N 32°46' W 117°15'0 0.0
2017-Aug-23 14:28N 32°46' W 117°15'0 0.0
2017-Aug-23 13:28N 32°46' W 117°15'0 0.0
2017-Aug-23 12:55N 32°46' W 117°15'0 0.0
2017-Aug-23 12:28N 32°46' W 117°15'0 0.0
2017-Aug-23 11:55N 32°46' W 117°15'0 0.0
2017-Aug-23 11:28N 32°46' W 117°15'0 0.0
2017-Aug-23 10:58N 32°46' W 117°15'0 0.1
2017-Aug-23 10:28N 32°46' W 117°15'0 0.1
2017-Aug-23 09:58N 32°46' W 117°15'0 0.0
2017-Aug-23 09:28N 32°46' W 117°15'0 0.0
2017-Aug-23 08:58N 32°46' W 117°15'0 0.0
2017-Aug-23 08:28N 32°46' W 117°15'0 0.0
2017-Aug-23 07:58N 32°46' W 117°15'0 0.0
2017-Aug-23 07:28N 32°46' W 117°15'0 0.0
2017-Aug-23 06:58N 32°46' W 117°15'0 0.0
2017-Aug-23 06:28N 32°46' W 117°15'0 0.0
2017-Aug-23 05:55N 32°46' W 117°15'0 0.0
2017-Aug-23 05:28N 32°46' W 117°15'0 0.0
2017-Aug-23 04:58N 32°46' W 117°15'0 0.0
2017-Aug-23 04:28N 32°46' W 117°15'0 0.0
2017-Aug-23 03:58N 32°46' W 117°15'0 0.0
2017-Aug-23 03:28N 32°46' W 117°15'0 0.0
2017-Aug-23 02:58N 32°46' W 117°15'0 0.0
2017-Aug-23 02:28N 32°46' W 117°15'0 0.0
2017-Aug-23 01:58N 32°46' W 117°15'0 0.0
2017-Aug-23 01:28N 32°46' W 117°15'0 0.0
2017-Aug-23 00:58N 32°46' W 117°15'0 0.0
2017-Aug-23 00:28N 32°46' W 117°15'0 0.0
2017-Aug-22 23:58N 32°46' W 117°15'0 0.0
2017-Aug-22 23:30N 32°46' W 117°15'0 0.0
2017-Aug-22 23:00N 32°46' W 117°15'0 0.0
2017-Aug-22 22:30N 32°46' W 117°15'0 0.0
2017-Aug-22 22:00N 32°46' W 117°15'0 0.0
2017-Aug-22 21:30N 32°46' W 117°15'0 0.0
2017-Aug-22 21:00N 32°46' W 117°15'0 0.0
2017-Aug-22 20:30N 32°46' W 117°15'0 0.0
2017-Aug-22 20:00N 32°46' W 117°15'0 0.0
2017-Aug-22 19:30N 32°46' W 117°15'0 0.0
2017-Aug-22 19:01N 32°46' W 117°15'1 1.2
2017-Aug-22 18:30N 32°46' W 117°15'3 6.1
2017-Aug-22 18:00N 32°43' W 117°17'3 6.9
2017-Aug-22 17:31N 32°40' W 117°16'2 4.0
2017-Aug-22 17:00N 32°40' W 117°14'3 5.6
2017-Aug-22 16:29N 32°43' W 117°14'0 0.0
2017-Aug-22 15:59N 32°43' W 117°14'0 0.0
2017-Aug-22 15:29N 32°43' W 117°14'0 0.0
2017-Aug-22 14:53N 32°43' W 117°14'0 0.0
2017-Aug-22 14:29N 32°43' W 117°14'0 0.0
2017-Aug-22 13:59N 32°43' W 117°14'0 0.0
2017-Aug-22 13:26N 32°43' W 117°14'0 0.0
2017-Aug-22 12:56N 32°43' W 117°14'0 0.0
2017-Aug-22 12:29N 32°43' W 117°14'0 0.0
2017-Aug-22 11:56N 32°43' W 117°14'0 0.0
2017-Aug-22 11:29N 32°43' W 117°14'0 0.0
2017-Aug-22 10:59N 32°43' W 117°14'0 0.0
2017-Aug-22 10:29N 32°43' W 117°14'0 0.0
2017-Aug-22 09:59N 32°43' W 117°14'0 0.0
2017-Aug-22 09:26N 32°43' W 117°14'0 0.0
2017-Aug-22 08:59N 32°43' W 117°14'0 0.0
2017-Aug-22 08:29N 32°43' W 117°14'0 0.0
2017-Aug-22 07:59N 32°43' W 117°14'0 0.0
2017-Aug-22 07:29N 32°43' W 117°14'0 0.0
2017-Aug-22 06:59N 32°43' W 117°14'0 0.0
2017-Aug-22 06:29N 32°43' W 117°14'0 0.0
2017-Aug-22 05:59N 32°43' W 117°14'0 0.0
2017-Aug-22 05:29N 32°43' W 117°14'0 0.0
2017-Aug-22 04:59N 32°43' W 117°14'0 0.0
2017-Aug-22 04:29N 32°43' W 117°14'0 0.0
2017-Aug-22 03:56N 32°43' W 117°14'0 0.0
2017-Aug-22 03:29N 32°43' W 117°14'0 0.0
2017-Aug-22 02:59N 32°43' W 117°14'0 0.0
2017-Aug-22 02:26N 32°43' W 117°14'0 0.0
2017-Aug-22 01:59N 32°43' W 117°14'0 0.0
2017-Aug-22 01:29N 32°43' W 117°14'0 0.0
2017-Aug-22 00:59N 32°43' W 117°14'0 0.0
2017-Aug-22 00:28N 32°43' W 117°14'0 0.0
2017-Aug-21 23:59N 32°43' W 117°14'0 0.0
2017-Aug-21 23:29N 32°43' W 117°14'0 0.0
2017-Aug-21 22:59N 32°43' W 117°14'0 0.0
2017-Aug-21 22:26N 32°43' W 117°14'0 0.0
2017-Aug-21 21:59N 32°43' W 117°14'0 0.0
2017-Aug-21 21:29N 32°43' W 117°14'0 0.0
2017-Aug-21 20:59N 32°43' W 117°14'0 0.0
2017-Aug-21 20:26N 32°43' W 117°14'0 0.0
2017-Aug-21 19:56N 32°43' W 117°14'0 0.0
2017-Aug-21 19:29N 32°43' W 117°14'0 0.0
2017-Aug-21 18:59N 32°43' W 117°14'0 0.0
2017-Aug-21 18:29N 32°43' W 117°14'0 0.0
2017-Aug-21 17:58N 32°43' W 117°14'0 0.0
2017-Aug-21 17:23N 32°43' W 117°14'0 0.0
2017-Aug-21 16:59N 32°43' W 117°14'0 0.0
2017-Aug-21 16:29N 32°43' W 117°14'0 0.0
2017-Aug-21 15:55N 32°43' W 117°14'0 0.0
2017-Aug-21 15:29N 32°43' W 117°14'0 0.0
2017-Aug-21 14:59N 32°43' W 117°14'0 0.0
2017-Aug-21 14:26N 32°43' W 117°14'0 0.0
2017-Aug-21 13:59N 32°43' W 117°14'0 0.0
2017-Aug-21 13:29N 32°43' W 117°14'0 0.0
2017-Aug-21 12:59N 32°43' W 117°14'0 0.0
2017-Aug-21 12:29N 32°43' W 117°14'0 0.0
2017-Aug-21 11:59N 32°43' W 117°14'0 0.0
2017-Aug-21 11:28N 32°43' W 117°14'0 0.0
2017-Aug-21 10:59N 32°43' W 117°14'0 0.0
2017-Aug-21 10:28N 32°43' W 117°14'0 0.0
2017-Aug-21 09:59N 32°43' W 117°14'0 0.0
2017-Aug-21 09:29N 32°43' W 117°14'0 0.0
2017-Aug-21 08:58N 32°43' W 117°14'0 0.0
2017-Aug-21 08:28N 32°43' W 117°14'0 0.0
2017-Aug-21 07:59N 32°43' W 117°14'0 0.0
2017-Aug-21 07:28N 32°43' W 117°14'0 0.0
2017-Aug-21 06:58N 32°43' W 117°14'0 0.0
2017-Aug-21 06:28N 32°43' W 117°14'0 0.0
2017-Aug-21 05:59N 32°43' W 117°14'0 0.0
2017-Aug-21 05:29N 32°43' W 117°14'0 0.0
2017-Aug-21 04:59N 32°43' W 117°14'0 0.0
2017-Aug-21 04:28N 32°43' W 117°14'0 0.0
2017-Aug-21 03:59N 32°43' W 117°14'0 0.0
2017-Aug-21 03:29N 32°43' W 117°14'0 0.0
2017-Aug-21 02:58N 32°43' W 117°14'0 0.0
2017-Aug-21 02:28N 32°43' W 117°14'0 0.0
2017-Aug-21 01:58N 32°43' W 117°14'0 0.0
2017-Aug-21 01:28N 32°43' W 117°14'0 0.0
2017-Aug-21 00:59N 32°43' W 117°14'0 0.0
2017-Aug-21 00:28N 32°43' W 117°14'0 0.0
2017-Aug-20 23:58N 32°43' W 117°14'0 0.0
2017-Aug-20 23:29N 32°43' W 117°14'0 0.0
2017-Aug-20 22:58N 32°43' W 117°14'0 0.0
2017-Aug-20 22:28N 32°43' W 117°14'0 0.0
2017-Aug-20 21:55N 32°43' W 117°14'0 0.0
2017-Aug-20 21:28N 32°43' W 117°14'0 0.0
2017-Aug-20 20:58N 32°43' W 117°14'0 0.0
2017-Aug-20 20:23N 32°43' W 117°14'0 0.0
2017-Aug-20 19:58N 32°43' W 117°14'0 0.0
2017-Aug-20 19:28N 32°43' W 117°14'0 0.0
2017-Aug-20 18:59N 32°43' W 117°14'  

Dump ship's entire track history